sensor_id;sensor_type;location;lat;lon;timestamp;P1;durP1;ratioP1;P2;durP2;ratioP2
56141;SDS011;42018;48.588;10.836;2023-07-22T00:00:39;2.15;;;1.23;;
56141;SDS011;42018;48.588;10.836;2023-07-22T00:03:24;2.42;;;1.30;;
56141;SDS011;42018;48.588;10.836;2023-07-22T00:06:10;2.40;;;1.30;;
56141;SDS011;42018;48.588;10.836;2023-07-22T00:08:56;2.20;;;1.00;;
56141;SDS011;42018;48.588;10.836;2023-07-22T00:11:41;2.53;;;1.20;;
56141;SDS011;42018;48.588;10.836;2023-07-22T00:14:26;1.52;;;1.10;;
56141;SDS011;42018;48.588;10.836;2023-07-22T00:17:12;3.00;;;1.40;;
56141;SDS011;42018;48.588;10.836;2023-07-22T00:19:57;1.92;;;1.20;;
56141;SDS011;42018;48.588;10.836;2023-07-22T00:22:42;2.42;;;1.25;;
56141;SDS011;42018;48.588;10.836;2023-07-22T00:25:28;2.30;;;1.30;;
56141;SDS011;42018;48.588;10.836;2023-07-22T00:28:13;2.15;;;1.10;;
56141;SDS011;42018;48.588;10.836;2023-07-22T00:30:59;2.33;;;1.25;;
56141;SDS011;42018;48.588;10.836;2023-07-22T00:33:47;2.92;;;1.30;;
56141;SDS011;42018;48.588;10.836;2023-07-22T00:36:32;2.15;;;1.20;;
56141;SDS011;42018;48.588;10.836;2023-07-22T00:39:18;2.55;;;1.25;;
56141;SDS011;42018;48.588;10.836;2023-07-22T00:42:04;2.50;;;1.20;;
56141;SDS011;42018;48.588;10.836;2023-07-22T00:44:49;2.65;;;1.40;;
56141;SDS011;42018;48.588;10.836;2023-07-22T00:47:35;2.28;;;1.38;;
56141;SDS011;42018;48.588;10.836;2023-07-22T00:50:21;2.25;;;1.30;;
56141;SDS011;42018;48.588;10.836;2023-07-22T00:53:07;2.33;;;1.20;;
56141;SDS011;42018;48.588;10.836;2023-07-22T00:55:52;2.85;;;1.40;;
56141;SDS011;42018;48.588;10.836;2023-07-22T00:58:39;2.40;;;1.20;;
56141;SDS011;42018;48.588;10.836;2023-07-22T01:01:25;2.65;;;1.30;;
56141;SDS011;42018;48.588;10.836;2023-07-22T01:04:10;2.55;;;1.30;;
56141;SDS011;42018;48.588;10.836;2023-07-22T01:06:58;2.33;;;1.35;;
56141;SDS011;42018;48.588;10.836;2023-07-22T01:09:45;1.95;;;1.25;;
56141;SDS011;42018;48.588;10.836;2023-07-22T01:12:30;2.53;;;1.23;;
56141;SDS011;42018;48.588;10.836;2023-07-22T01:15:16;2.28;;;1.20;;
56141;SDS011;42018;48.588;10.836;2023-07-22T01:18:01;2.60;;;1.40;;
56141;SDS011;42018;48.588;10.836;2023-07-22T01:20:48;2.65;;;1.27;;
56141;SDS011;42018;48.588;10.836;2023-07-22T01:23:33;1.95;;;1.17;;
56141;SDS011;42018;48.588;10.836;2023-07-22T01:26:20;2.53;;;1.30;;
56141;SDS011;42018;48.588;10.836;2023-07-22T01:29:05;2.58;;;1.30;;
56141;SDS011;42018;48.588;10.836;2023-07-22T01:31:51;2.22;;;1.10;;
56141;SDS011;42018;48.588;10.836;2023-07-22T01:34:38;2.05;;;1.15;;
56141;SDS011;42018;48.588;10.836;2023-07-22T01:37:24;2.10;;;1.20;;
56141;SDS011;42018;48.588;10.836;2023-07-22T01:40:10;1.92;;;1.20;;
56141;SDS011;42018;48.588;10.836;2023-07-22T01:42:59;2.28;;;1.30;;
56141;SDS011;42018;48.588;10.836;2023-07-22T01:45:44;2.42;;;1.33;;
56141;SDS011;42018;48.588;10.836;2023-07-22T01:48:30;2.85;;;1.40;;
56141;SDS011;42018;48.588;10.836;2023-07-22T01:51:16;2.20;;;1.27;;
56141;SDS011;42018;48.588;10.836;2023-07-22T01:54:01;1.88;;;1.17;;
56141;SDS011;42018;48.588;10.836;2023-07-22T01:56:46;2.00;;;1.10;;
56141;SDS011;42018;48.588;10.836;2023-07-22T01:59:32;2.22;;;1.10;;
56141;SDS011;42018;48.588;10.836;2023-07-22T02:02:18;2.95;;;1.20;;
56141;SDS011;42018;48.588;10.836;2023-07-22T02:05:05;3.15;;;1.33;;
56141;SDS011;42018;48.588;10.836;2023-07-22T02:07:51;2.75;;;1.40;;
56141;SDS011;42018;48.588;10.836;2023-07-22T02:10:36;3.35;;;1.42;;
56141;SDS011;42018;48.588;10.836;2023-07-22T02:13:21;2.42;;;1.30;;
56141;SDS011;42018;48.588;10.836;2023-07-22T02:16:07;2.55;;;1.40;;
56141;SDS011;42018;48.588;10.836;2023-07-22T02:18:56;2.28;;;1.30;;
56141;SDS011;42018;48.588;10.836;2023-07-22T02:21:42;2.35;;;1.20;;
56141;SDS011;42018;48.588;10.836;2023-07-22T02:24:27;2.47;;;1.33;;
56141;SDS011;42018;48.588;10.836;2023-07-22T02:27:13;3.08;;;1.38;;
56141;SDS011;42018;48.588;10.836;2023-07-22T02:29:59;3.00;;;1.40;;
56141;SDS011;42018;48.588;10.836;2023-07-22T02:32:44;2.33;;;1.40;;
56141;SDS011;42018;48.588;10.836;2023-07-22T02:35:30;3.22;;;1.38;;
56141;SDS011;42018;48.588;10.836;2023-07-22T02:38:15;2.60;;;1.40;;
56141;SDS011;42018;48.588;10.836;2023-07-22T02:41:01;2.80;;;1.45;;
56141;SDS011;42018;48.588;10.836;2023-07-22T02:43:51;2.15;;;1.20;;
56141;SDS011;42018;48.588;10.836;2023-07-22T02:46:37;2.45;;;1.30;;
56141;SDS011;42018;48.588;10.836;2023-07-22T02:49:22;2.72;;;1.40;;
56141;SDS011;42018;48.588;10.836;2023-07-22T02:52:07;2.25;;;1.30;;
56141;SDS011;42018;48.588;10.836;2023-07-22T02:55:15;2.42;;;1.40;;
56141;SDS011;42018;48.588;10.836;2023-07-22T02:58:00;2.67;;;1.52;;
56141;SDS011;42018;48.588;10.836;2023-07-22T03:00:45;3.00;;;1.45;;
56141;SDS011;42018;48.588;10.836;2023-07-22T03:03:30;2.55;;;1.40;;
56141;SDS011;42018;48.588;10.836;2023-07-22T03:06:18;2.63;;;1.40;;
56141;SDS011;42018;48.588;10.836;2023-07-22T03:09:03;2.95;;;1.40;;
56141;SDS011;42018;48.588;10.836;2023-07-22T03:11:49;2.63;;;1.33;;
56141;SDS011;42018;48.588;10.836;2023-07-22T03:14:35;2.72;;;1.40;;
56141;SDS011;42018;48.588;10.836;2023-07-22T03:17:22;3.10;;;1.52;;
56141;SDS011;42018;48.588;10.836;2023-07-22T03:20:08;4.32;;;1.40;;
56141;SDS011;42018;48.588;10.836;2023-07-22T03:22:59;2.63;;;1.33;;
56141;SDS011;42018;48.588;10.836;2023-07-22T03:25:44;2.80;;;1.33;;
56141;SDS011;42018;48.588;10.836;2023-07-22T03:28:30;3.13;;;1.52;;
56141;SDS011;42018;48.588;10.836;2023-07-22T03:31:16;3.10;;;1.30;;
56141;SDS011;42018;48.588;10.836;2023-07-22T03:34:02;3.15;;;1.40;;
56141;SDS011;42018;48.588;10.836;2023-07-22T03:36:48;3.03;;;1.50;;
56141;SDS011;42018;48.588;10.836;2023-07-22T03:39:33;3.65;;;1.40;;
56141;SDS011;42018;48.588;10.836;2023-07-22T03:42:19;2.53;;;1.40;;
56141;SDS011;42018;48.588;10.836;2023-07-22T03:45:04;2.92;;;1.42;;
56141;SDS011;42018;48.588;10.836;2023-07-22T03:47:52;2.55;;;1.40;;
56141;SDS011;42018;48.588;10.836;2023-07-22T03:50:39;2.08;;;1.10;;
56141;SDS011;42018;48.588;10.836;2023-07-22T03:53:25;2.65;;;1.40;;
56141;SDS011;42018;48.588;10.836;2023-07-22T03:56:10;2.60;;;1.40;;
56141;SDS011;42018;48.588;10.836;2023-07-22T03:58:55;2.58;;;1.38;;
56141;SDS011;42018;48.588;10.836;2023-07-22T04:01:41;2.70;;;1.50;;
56141;SDS011;42018;48.588;10.836;2023-07-22T04:04:26;3.00;;;1.40;;
56141;SDS011;42018;48.588;10.836;2023-07-22T04:07:11;2.53;;;1.40;;
56141;SDS011;42018;48.588;10.836;2023-07-22T04:09:57;2.28;;;1.30;;
56141;SDS011;42018;48.588;10.836;2023-07-22T04:12:42;2.75;;;1.40;;
56141;SDS011;42018;48.588;10.836;2023-07-22T04:15:28;2.72;;;1.50;;
56141;SDS011;42018;48.588;10.836;2023-07-22T04:18:15;2.97;;;1.42;;
56141;SDS011;42018;48.588;10.836;2023-07-22T04:21:01;2.63;;;1.40;;
56141;SDS011;42018;48.588;10.836;2023-07-22T04:23:47;2.40;;;1.40;;
56141;SDS011;42018;48.588;10.836;2023-07-22T04:26:32;2.60;;;1.30;;
56141;SDS011;42018;48.588;10.836;2023-07-22T04:29:17;2.97;;;1.50;;
56141;SDS011;42018;48.588;10.836;2023-07-22T04:32:03;2.05;;;1.30;;
56141;SDS011;42018;48.588;10.836;2023-07-22T04:34:48;2.72;;;1.50;;
56141;SDS011;42018;48.588;10.836;2023-07-22T04:37:34;3.45;;;1.65;;
56141;SDS011;42018;48.588;10.836;2023-07-22T04:40:19;2.88;;;1.50;;
56141;SDS011;42018;48.588;10.836;2023-07-22T04:43:04;4.32;;;1.60;;
56141;SDS011;42018;48.588;10.836;2023-07-22T04:45:50;3.00;;;1.50;;
56141;SDS011;42018;48.588;10.836;2023-07-22T04:48:35;2.45;;;1.40;;
56141;SDS011;42018;48.588;10.836;2023-07-22T04:51:22;2.72;;;1.40;;
56141;SDS011;42018;48.588;10.836;2023-07-22T04:54:07;3.60;;;1.55;;
56141;SDS011;42018;48.588;10.836;2023-07-22T04:56:52;2.67;;;1.50;;
56141;SDS011;42018;48.588;10.836;2023-07-22T04:59:38;3.05;;;1.50;;
56141;SDS011;42018;48.588;10.836;2023-07-22T05:02:23;1.95;;;1.30;;
56141;SDS011;42018;48.588;10.836;2023-07-22T05:05:08;2.72;;;1.30;;
56141;SDS011;42018;48.588;10.836;2023-07-22T05:07:54;3.45;;;1.60;;
56141;SDS011;42018;48.588;10.836;2023-07-22T05:10:40;4.55;;;1.88;;
56141;SDS011;42018;48.588;10.836;2023-07-22T05:13:25;3.28;;;1.75;;
56141;SDS011;42018;48.588;10.836;2023-07-22T05:16:10;3.60;;;1.80;;
56141;SDS011;42018;48.588;10.836;2023-07-22T05:18:56;3.60;;;1.80;;
56141;SDS011;42018;48.588;10.836;2023-07-22T05:21:41;4.03;;;1.67;;
56141;SDS011;42018;48.588;10.836;2023-07-22T05:24:26;3.35;;;1.50;;
56141;SDS011;42018;48.588;10.836;2023-07-22T05:27:12;4.20;;;1.95;;
56141;SDS011;42018;48.588;10.836;2023-07-22T05:29:57;2.97;;;1.70;;
56141;SDS011;42018;48.588;10.836;2023-07-22T05:32:42;3.45;;;1.77;;
56141;SDS011;42018;48.588;10.836;2023-07-22T05:35:28;4.10;;;1.75;;
56141;SDS011;42018;48.588;10.836;2023-07-22T05:38:13;3.47;;;1.90;;
56141;SDS011;42018;48.588;10.836;2023-07-22T05:40:59;2.78;;;1.60;;
56141;SDS011;42018;48.588;10.836;2023-07-22T05:43:44;3.03;;;1.58;;
56141;SDS011;42018;48.588;10.836;2023-07-22T05:46:29;3.78;;;1.75;;
56141;SDS011;42018;48.588;10.836;2023-07-22T05:49:15;3.72;;;1.60;;
56141;SDS011;42018;48.588;10.836;2023-07-22T05:52:01;4.32;;;1.63;;
56141;SDS011;42018;48.588;10.836;2023-07-22T05:54:46;3.92;;;1.75;;
56141;SDS011;42018;48.588;10.836;2023-07-22T05:57:32;3.13;;;1.70;;
56141;SDS011;42018;48.588;10.836;2023-07-22T06:00:17;3.90;;;1.70;;
56141;SDS011;42018;48.588;10.836;2023-07-22T06:03:03;4.40;;;1.75;;
56141;SDS011;42018;48.588;10.836;2023-07-22T06:05:49;2.97;;;1.63;;
56141;SDS011;42018;48.588;10.836;2023-07-22T06:08:35;4.95;;;1.80;;
56141;SDS011;42018;48.588;10.836;2023-07-22T06:11:20;4.00;;;1.70;;
56141;SDS011;42018;48.588;10.836;2023-07-22T06:14:06;2.70;;;1.55;;
56141;SDS011;42018;48.588;10.836;2023-07-22T06:16:53;3.13;;;1.60;;
56141;SDS011;42018;48.588;10.836;2023-07-22T06:19:38;3.00;;;1.60;;
56141;SDS011;42018;48.588;10.836;2023-07-22T06:22:23;3.28;;;1.63;;
56141;SDS011;42018;48.588;10.836;2023-07-22T06:25:09;3.47;;;1.70;;
56141;SDS011;42018;48.588;10.836;2023-07-22T06:27:54;3.38;;;1.77;;
56141;SDS011;42018;48.588;10.836;2023-07-22T06:30:40;2.97;;;1.58;;
56141;SDS011;42018;48.588;10.836;2023-07-22T06:33:25;4.63;;;1.50;;
56141;SDS011;42018;48.588;10.836;2023-07-22T06:36:10;3.78;;;1.63;;
56141;SDS011;42018;48.588;10.836;2023-07-22T06:38:56;3.10;;;1.50;;
56141;SDS011;42018;48.588;10.836;2023-07-22T06:41:41;2.85;;;1.40;;
56141;SDS011;42018;48.588;10.836;2023-07-22T06:44:27;2.95;;;1.50;;
56141;SDS011;42018;48.588;10.836;2023-07-22T06:47:12;2.63;;;1.50;;
56141;SDS011;42018;48.588;10.836;2023-07-22T06:49:58;3.55;;;1.30;;
56141;SDS011;42018;48.588;10.836;2023-07-22T06:52:43;4.90;;;1.73;;
56141;SDS011;42018;48.588;10.836;2023-07-22T06:55:28;3.38;;;1.65;;
56141;SDS011;42018;48.588;10.836;2023-07-22T06:58:14;3.05;;;1.50;;
56141;SDS011;42018;48.588;10.836;2023-07-22T07:00:59;3.10;;;1.52;;
56141;SDS011;42018;48.588;10.836;2023-07-22T07:03:45;3.45;;;1.48;;
56141;SDS011;42018;48.588;10.836;2023-07-22T07:06:30;3.35;;;1.50;;
56141;SDS011;42018;48.588;10.836;2023-07-22T07:09:16;2.60;;;1.20;;
56141;SDS011;42018;48.588;10.836;2023-07-22T07:12:02;3.20;;;1.50;;
56141;SDS011;42018;48.588;10.836;2023-07-22T07:14:49;2.00;;;1.17;;
56141;SDS011;42018;48.588;10.836;2023-07-22T07:17:35;3.33;;;1.52;;
56141;SDS011;42018;48.588;10.836;2023-07-22T07:20:20;4.00;;;1.45;;
56141;SDS011;42018;48.588;10.836;2023-07-22T07:23:06;2.80;;;1.40;;
56141;SDS011;42018;48.588;10.836;2023-07-22T07:25:51;2.63;;;1.35;;
56141;SDS011;42018;48.588;10.836;2023-07-22T07:28:36;2.97;;;1.40;;
56141;SDS011;42018;48.588;10.836;2023-07-22T07:31:22;2.47;;;1.13;;
56141;SDS011;42018;48.588;10.836;2023-07-22T07:34:07;2.72;;;1.38;;
56141;SDS011;42018;48.588;10.836;2023-07-22T07:36:53;2.65;;;1.25;;
56141;SDS011;42018;48.588;10.836;2023-07-22T07:39:38;3.53;;;1.10;;
56141;SDS011;42018;48.588;10.836;2023-07-22T07:42:23;2.25;;;1.10;;
56141;SDS011;42018;48.588;10.836;2023-07-22T07:45:09;3.20;;;1.40;;
56141;SDS011;42018;48.588;10.836;2023-07-22T07:47:54;1.90;;;1.20;;
56141;SDS011;42018;48.588;10.836;2023-07-22T07:50:39;2.40;;;1.20;;
56141;SDS011;42018;48.588;10.836;2023-07-22T07:53:25;2.65;;;1.38;;
56141;SDS011;42018;48.588;10.836;2023-07-22T07:56:10;3.78;;;1.20;;
56141;SDS011;42018;48.588;10.836;2023-07-22T07:58:56;2.95;;;1.30;;
56141;SDS011;42018;48.588;10.836;2023-07-22T08:01:42;1.65;;;0.90;;
56141;SDS011;42018;48.588;10.836;2023-07-22T08:04:27;2.53;;;1.00;;
56141;SDS011;42018;48.588;10.836;2023-07-22T08:07:14;2.00;;;1.05;;
56141;SDS011;42018;48.588;10.836;2023-07-22T08:10:00;3.08;;;1.30;;
56141;SDS011;42018;48.588;10.836;2023-07-22T08:12:49;2.92;;;1.20;;
56141;SDS011;42018;48.588;10.836;2023-07-22T08:15:34;1.50;;;0.95;;
56141;SDS011;42018;48.588;10.836;2023-07-22T08:18:20;1.65;;;1.10;;
56141;SDS011;42018;48.588;10.836;2023-07-22T08:21:06;3.58;;;1.20;;
56141;SDS011;42018;48.588;10.836;2023-07-22T08:23:52;1.55;;;0.85;;
56141;SDS011;42018;48.588;10.836;2023-07-22T08:26:38;2.55;;;0.98;;
56141;SDS011;42018;48.588;10.836;2023-07-22T08:29:23;1.40;;;0.93;;
56141;SDS011;42018;48.588;10.836;2023-07-22T08:32:09;1.52;;;0.90;;
56141;SDS011;42018;48.588;10.836;2023-07-22T08:34:54;2.28;;;1.02;;
56141;SDS011;42018;48.588;10.836;2023-07-22T08:37:39;1.55;;;0.82;;
56141;SDS011;42018;48.588;10.836;2023-07-22T08:40:25;2.15;;;1.08;;
56141;SDS011;42018;48.588;10.836;2023-07-22T08:43:10;2.97;;;1.00;;
56141;SDS011;42018;48.588;10.836;2023-07-22T08:45:58;3.67;;;1.00;;
56141;SDS011;42018;48.588;10.836;2023-07-22T08:48:46;2.15;;;1.10;;
56141;SDS011;42018;48.588;10.836;2023-07-22T08:51:33;2.65;;;1.17;;
56141;SDS011;42018;48.588;10.836;2023-07-22T08:54:21;1.52;;;1.00;;
56141;SDS011;42018;48.588;10.836;2023-07-22T08:57:08;1.50;;;0.80;;
56141;SDS011;42018;48.588;10.836;2023-07-22T08:59:56;1.42;;;0.90;;
56141;SDS011;42018;48.588;10.836;2023-07-22T09:02:42;1.27;;;0.90;;
56141;SDS011;42018;48.588;10.836;2023-07-22T09:05:28;2.72;;;0.95;;
56141;SDS011;42018;48.588;10.836;2023-07-22T09:08:14;1.90;;;1.10;;
56141;SDS011;42018;48.588;10.836;2023-07-22T09:10:59;2.10;;;1.10;;
56141;SDS011;42018;48.588;10.836;2023-07-22T09:13:45;1.63;;;0.95;;
56141;SDS011;42018;48.588;10.836;2023-07-22T09:16:31;2.83;;;1.20;;
56141;SDS011;42018;48.588;10.836;2023-07-22T09:19:17;2.78;;;1.00;;
56141;SDS011;42018;48.588;10.836;2023-07-22T09:22:02;1.58;;;0.90;;
56141;SDS011;42018;48.588;10.836;2023-07-22T09:24:48;2.70;;;1.10;;
56141;SDS011;42018;48.588;10.836;2023-07-22T09:27:33;1.80;;;1.08;;
56141;SDS011;42018;48.588;10.836;2023-07-22T09:33:20;2.03;;;0.95;;
56141;SDS011;42018;48.588;10.836;2023-07-22T09:36:07;1.33;;;0.90;;
56141;SDS011;42018;48.588;10.836;2023-07-22T09:39:02;3.03;;;1.10;;
56141;SDS011;42018;48.588;10.836;2023-07-22T09:41:48;1.65;;;0.90;;
56141;SDS011;42018;48.588;10.836;2023-07-22T09:44:33;1.85;;;0.90;;
56141;SDS011;42018;48.588;10.836;2023-07-22T09:47:20;1.65;;;0.90;;
56141;SDS011;42018;48.588;10.836;2023-07-22T09:50:06;1.08;;;0.77;;
56141;SDS011;42018;48.588;10.836;2023-07-22T09:52:59;2.13;;;1.00;;
56141;SDS011;42018;48.588;10.836;2023-07-22T09:55:45;1.48;;;0.80;;
56141;SDS011;42018;48.588;10.836;2023-07-22T10:02:18;1.67;;;0.90;;
56141;SDS011;42018;48.588;10.836;2023-07-22T10:05:05;1.65;;;0.88;;
56141;SDS011;42018;48.588;10.836;2023-07-22T10:07:56;1.42;;;0.90;;
56141;SDS011;42018;48.588;10.836;2023-07-22T10:10:44;2.15;;;1.00;;
56141;SDS011;42018;48.588;10.836;2023-07-22T10:17:10;1.38;;;0.90;;
56141;SDS011;42018;48.588;10.836;2023-07-22T10:19:56;2.28;;;1.05;;
56141;SDS011;42018;48.588;10.836;2023-07-22T10:22:42;2.20;;;0.80;;
56141;SDS011;42018;48.588;10.836;2023-07-22T10:25:29;1.48;;;0.75;;
56141;SDS011;42018;48.588;10.836;2023-07-22T10:28:15;1.48;;;0.88;;
56141;SDS011;42018;48.588;10.836;2023-07-22T10:31:00;2.05;;;1.00;;
56141;SDS011;42018;48.588;10.836;2023-07-22T10:33:47;1.45;;;0.80;;
56141;SDS011;42018;48.588;10.836;2023-07-22T10:36:34;1.25;;;0.80;;
56141;SDS011;42018;48.588;10.836;2023-07-22T10:39:24;2.60;;;0.82;;
56141;SDS011;42018;48.588;10.836;2023-07-22T10:42:25;1.55;;;0.85;;
56141;SDS011;42018;48.588;10.836;2023-07-22T10:45:24;1.63;;;0.85;;
56141;SDS011;42018;48.588;10.836;2023-07-22T10:48:12;2.17;;;0.82;;
56141;SDS011;42018;48.588;10.836;2023-07-22T10:51:00;3.20;;;1.00;;
56141;SDS011;42018;48.588;10.836;2023-07-22T10:56:43;1.20;;;0.75;;
56141;SDS011;42018;48.588;10.836;2023-07-22T10:59:29;2.15;;;1.00;;
56141;SDS011;42018;48.588;10.836;2023-07-22T11:02:22;1.48;;;0.80;;
56141;SDS011;42018;48.588;10.836;2023-07-22T11:05:12;1.67;;;0.70;;
56141;SDS011;42018;48.588;10.836;2023-07-22T11:08:04;2.50;;;0.90;;
56141;SDS011;42018;48.588;10.836;2023-07-22T11:10:53;4.65;;;1.00;;
56141;SDS011;42018;48.588;10.836;2023-07-22T11:13:40;1.40;;;0.80;;
56141;SDS011;42018;48.588;10.836;2023-07-22T11:16:28;1.60;;;0.93;;
56141;SDS011;42018;48.588;10.836;2023-07-22T11:19:14;1.58;;;0.85;;
56141;SDS011;42018;48.588;10.836;2023-07-22T11:22:01;1.63;;;0.93;;
56141;SDS011;42018;48.588;10.836;2023-07-22T11:24:47;1.70;;;0.82;;
56141;SDS011;42018;48.588;10.836;2023-07-22T11:27:36;0.90;;;0.80;;
56141;SDS011;42018;48.588;10.836;2023-07-22T11:30:23;2.17;;;0.85;;
56141;SDS011;42018;48.588;10.836;2023-07-22T11:33:09;1.75;;;0.90;;
56141;SDS011;42018;48.588;10.836;2023-07-22T11:35:54;1.80;;;0.90;;
56141;SDS011;42018;48.588;10.836;2023-07-22T11:38:40;2.22;;;0.90;;
56141;SDS011;42018;48.588;10.836;2023-07-22T11:41:25;0.82;;;0.70;;
56141;SDS011;42018;48.588;10.836;2023-07-22T11:44:12;2.20;;;0.95;;
56141;SDS011;42018;48.588;10.836;2023-07-22T11:47:00;1.30;;;0.77;;
56141;SDS011;42018;48.588;10.836;2023-07-22T11:49:55;2.35;;;0.90;;
56141;SDS011;42018;48.588;10.836;2023-07-22T11:52:42;2.65;;;0.80;;
56141;SDS011;42018;48.588;10.836;2023-07-22T11:55:44;1.10;;;0.90;;
56141;SDS011;42018;48.588;10.836;2023-07-22T11:58:29;2.15;;;0.90;;
56141;SDS011;42018;48.588;10.836;2023-07-22T12:01:16;1.75;;;0.90;;
56141;SDS011;42018;48.588;10.836;2023-07-22T12:04:01;2.08;;;1.00;;
56141;SDS011;42018;48.588;10.836;2023-07-22T12:06:46;1.90;;;0.80;;
56141;SDS011;42018;48.588;10.836;2023-07-22T12:09:32;2.90;;;0.85;;
56141;SDS011;42018;48.588;10.836;2023-07-22T12:12:17;1.80;;;0.93;;
56141;SDS011;42018;48.588;10.836;2023-07-22T12:18:02;2.08;;;0.85;;
56141;SDS011;42018;48.588;10.836;2023-07-22T12:20:48;2.75;;;0.90;;
56141;SDS011;42018;48.588;10.836;2023-07-22T12:23:33;1.95;;;1.00;;
56141;SDS011;42018;48.588;10.836;2023-07-22T12:26:19;2.08;;;1.08;;
56141;SDS011;42018;48.588;10.836;2023-07-22T12:29:04;2.28;;;0.90;;
56141;SDS011;42018;48.588;10.836;2023-07-22T12:31:49;1.73;;;0.90;;
56141;SDS011;42018;48.588;10.836;2023-07-22T12:34:35;3.42;;;1.00;;
56141;SDS011;42018;48.588;10.836;2023-07-22T12:37:20;2.10;;;1.10;;
56141;SDS011;42018;48.588;10.836;2023-07-22T12:40:06;2.20;;;1.10;;
56141;SDS011;42018;48.588;10.836;2023-07-22T12:42:53;1.80;;;1.00;;
56141;SDS011;42018;48.588;10.836;2023-07-22T12:45:38;2.83;;;1.10;;
56141;SDS011;42018;48.588;10.836;2023-07-22T12:48:23;2.47;;;1.10;;
56141;SDS011;42018;48.588;10.836;2023-07-22T12:51:09;1.38;;;0.90;;
56141;SDS011;42018;48.588;10.836;2023-07-22T12:53:54;2.58;;;1.00;;
56141;SDS011;42018;48.588;10.836;2023-07-22T12:56:40;1.45;;;0.98;;
56141;SDS011;42018;48.588;10.836;2023-07-22T12:59:27;2.33;;;1.10;;
56141;SDS011;42018;48.588;10.836;2023-07-22T13:02:13;1.75;;;1.00;;
56141;SDS011;42018;48.588;10.836;2023-07-22T13:04:58;2.25;;;1.10;;
56141;SDS011;42018;48.588;10.836;2023-07-22T13:07:43;1.60;;;1.00;;
56141;SDS011;42018;48.588;10.836;2023-07-22T13:10:29;1.83;;;1.00;;
56141;SDS011;42018;48.588;10.836;2023-07-22T13:13:15;2.35;;;1.05;;
56141;SDS011;42018;48.588;10.836;2023-07-22T13:16:01;3.78;;;1.00;;
56141;SDS011;42018;48.588;10.836;2023-07-22T13:18:46;1.67;;;1.00;;
56141;SDS011;42018;48.588;10.836;2023-07-22T13:21:31;1.98;;;1.08;;
56141;SDS011;42018;48.588;10.836;2023-07-22T13:24:17;1.88;;;1.00;;
56141;SDS011;42018;48.588;10.836;2023-07-22T13:27:03;1.92;;;1.00;;
56141;SDS011;42018;48.588;10.836;2023-07-22T13:29:48;2.25;;;0.90;;
56141;SDS011;42018;48.588;10.836;2023-07-22T13:32:34;1.92;;;1.00;;
56141;SDS011;42018;48.588;10.836;2023-07-22T13:35:19;2.63;;;1.00;;
56141;SDS011;42018;48.588;10.836;2023-07-22T13:38:05;2.90;;;1.00;;
56141;SDS011;42018;48.588;10.836;2023-07-22T13:40:50;2.17;;;1.10;;
56141;SDS011;42018;48.588;10.836;2023-07-22T13:43:36;2.47;;;1.08;;
56141;SDS011;42018;48.588;10.836;2023-07-22T13:46:22;2.00;;;1.00;;
56141;SDS011;42018;48.588;10.836;2023-07-22T13:49:07;2.17;;;0.90;;
56141;SDS011;42018;48.588;10.836;2023-07-22T13:51:52;2.13;;;1.00;;
56141;SDS011;42018;48.588;10.836;2023-07-22T13:54:38;1.63;;;1.00;;
56141;SDS011;42018;48.588;10.836;2023-07-22T13:57:23;2.13;;;1.10;;
56141;SDS011;42018;48.588;10.836;2023-07-22T14:00:09;2.25;;;1.00;;
56141;SDS011;42018;48.588;10.836;2023-07-22T14:02:55;2.05;;;1.00;;
56141;SDS011;42018;48.588;10.836;2023-07-22T14:05:42;2.97;;;1.00;;
56141;SDS011;42018;48.588;10.836;2023-07-22T14:08:27;1.92;;;1.10;;
56141;SDS011;42018;48.588;10.836;2023-07-22T14:11:13;3.67;;;1.15;;
56141;SDS011;42018;48.588;10.836;2023-07-22T14:13:58;2.72;;;1.17;;
56141;SDS011;42018;48.588;10.836;2023-07-22T14:16:43;1.88;;;1.02;;
56141;SDS011;42018;48.588;10.836;2023-07-22T14:19:29;1.88;;;1.00;;
56141;SDS011;42018;48.588;10.836;2023-07-22T14:22:14;1.73;;;0.95;;
56141;SDS011;42018;48.588;10.836;2023-07-22T14:24:59;3.25;;;0.90;;
56141;SDS011;42018;48.588;10.836;2023-07-22T14:27:45;2.35;;;1.23;;
56141;SDS011;42018;48.588;10.836;2023-07-22T14:30:30;3.03;;;1.10;;
56141;SDS011;42018;48.588;10.836;2023-07-22T14:33:15;1.75;;;1.00;;
56141;SDS011;42018;48.588;10.836;2023-07-22T14:36:01;1.75;;;0.90;;
56141;SDS011;42018;48.588;10.836;2023-07-22T14:38:46;1.77;;;1.08;;
56141;SDS011;42018;48.588;10.836;2023-07-22T14:41:31;2.30;;;1.17;;
56141;SDS011;42018;48.588;10.836;2023-07-22T14:44:18;2.08;;;1.20;;
56141;SDS011;42018;48.588;10.836;2023-07-22T14:47:03;1.60;;;1.00;;
56141;SDS011;42018;48.588;10.836;2023-07-22T14:49:51;1.75;;;1.00;;
56141;SDS011;42018;48.588;10.836;2023-07-22T14:52:37;1.10;;;0.80;;
56141;SDS011;42018;48.588;10.836;2023-07-22T14:55:22;1.85;;;0.93;;
56141;SDS011;42018;48.588;10.836;2023-07-22T14:58:07;1.70;;;1.00;;
56141;SDS011;42018;48.588;10.836;2023-07-22T15:00:53;1.83;;;0.95;;
56141;SDS011;42018;48.588;10.836;2023-07-22T15:03:38;1.80;;;1.02;;
56141;SDS011;42018;48.588;10.836;2023-07-22T15:06:24;1.55;;;0.90;;
56141;SDS011;42018;48.588;10.836;2023-07-22T15:09:10;1.95;;;1.02;;
56141;SDS011;42018;48.588;10.836;2023-07-22T15:11:55;2.30;;;0.88;;
56141;SDS011;42018;48.588;10.836;2023-07-22T15:14:40;2.45;;;0.90;;
56141;SDS011;42018;48.588;10.836;2023-07-22T15:17:26;1.70;;;1.00;;
56141;SDS011;42018;48.588;10.836;2023-07-22T15:20:24;1.60;;;0.90;;
56141;SDS011;42018;48.588;10.836;2023-07-22T15:23:09;2.15;;;0.85;;
56141;SDS011;42018;48.588;10.836;2023-07-22T15:25:54;1.45;;;0.93;;
56141;SDS011;42018;48.588;10.836;2023-07-22T15:28:40;2.40;;;1.10;;
56141;SDS011;42018;48.588;10.836;2023-07-22T15:31:25;2.42;;;1.10;;
56141;SDS011;42018;48.588;10.836;2023-07-22T15:34:11;2.10;;;1.08;;
56141;SDS011;42018;48.588;10.836;2023-07-22T15:36:56;2.03;;;1.02;;
56141;SDS011;42018;48.588;10.836;2023-07-22T15:39:41;3.92;;;1.20;;
56141;SDS011;42018;48.588;10.836;2023-07-22T15:42:28;2.53;;;1.10;;
56141;SDS011;42018;48.588;10.836;2023-07-22T15:45:13;2.05;;;1.00;;
56141;SDS011;42018;48.588;10.836;2023-07-22T15:47:58;2.88;;;1.00;;
56141;SDS011;42018;48.588;10.836;2023-07-22T15:50:44;2.25;;;1.00;;
56141;SDS011;42018;48.588;10.836;2023-07-22T15:53:30;1.73;;;1.00;;
56141;SDS011;42018;48.588;10.836;2023-07-22T15:56:15;1.77;;;0.90;;
56141;SDS011;42018;48.588;10.836;2023-07-22T15:59:00;3.83;;;1.17;;
56141;SDS011;42018;48.588;10.836;2023-07-22T16:01:46;2.53;;;1.10;;
56141;SDS011;42018;48.588;10.836;2023-07-22T16:04:31;2.65;;;1.13;;
56141;SDS011;42018;48.588;10.836;2023-07-22T16:07:17;2.22;;;1.10;;
56141;SDS011;42018;48.588;10.836;2023-07-22T16:10:03;3.17;;;1.20;;
56141;SDS011;42018;48.588;10.836;2023-07-22T16:12:48;1.50;;;1.00;;
56141;SDS011;42018;48.588;10.836;2023-07-22T16:15:34;2.00;;;1.20;;
56141;SDS011;42018;48.588;10.836;2023-07-22T16:18:19;1.90;;;1.10;;
56141;SDS011;42018;48.588;10.836;2023-07-22T16:21:05;1.88;;;1.13;;
56141;SDS011;42018;48.588;10.836;2023-07-22T16:23:50;2.28;;;1.23;;
56141;SDS011;42018;48.588;10.836;2023-07-22T16:26:35;2.58;;;1.20;;
56141;SDS011;42018;48.588;10.836;2023-07-22T16:29:21;3.50;;;1.50;;
56141;SDS011;42018;48.588;10.836;2023-07-22T16:32:06;2.45;;;1.08;;
56141;SDS011;42018;48.588;10.836;2023-07-22T16:34:52;2.67;;;1.05;;
56141;SDS011;42018;48.588;10.836;2023-07-22T16:37:38;2.90;;;1.30;;
56141;SDS011;42018;48.588;10.836;2023-07-22T16:40:23;1.90;;;1.15;;